Terminal Aerodrome Forecast
Issued by NWS

Home | Current Version | Previous Version | Text Only | Print | Product List | Glossary Off
Versions: 1 2 3 4 5 6 7 8 9 10 11 12 13 14

000
FTUS43 KTOP 042337
TAFMHK
TAF
KMHK 042337Z 0500/0524 11008KT P6SM -SHRA VCTS BKN100CB
     FM050100 18003KT P6SM OVC100
     FM050900 09005KT 5SM -SHRA VCTS SCT015 BKN025CB
     FM051300 12005KT P6SM BKN050=

USA.gov is the U.S. government's official web portal to all federal, state and local government web resources and services.